createdAt,value
2023-05-16T00:00:48.133Z,990.97
2023-05-16T00:01:48.334Z,991.00
2023-05-16T00:02:48.357Z,990.96
2023-05-16T00:03:48.184Z,990.99
2023-05-16T00:04:48.143Z,990.98
2023-05-16T00:05:48.108Z,991.01
2023-05-16T00:06:48.121Z,990.93
2023-05-16T00:07:48.137Z,990.98
2023-05-16T00:08:48.128Z,990.92
2023-05-16T00:09:48.122Z,990.98
2023-05-16T00:10:48.153Z,990.93
2023-05-16T00:11:48.150Z,990.98
2023-05-16T00:12:48.299Z,990.92
2023-05-16T00:13:48.253Z,990.97
2023-05-16T00:14:48.275Z,990.94
2023-05-16T00:15:48.280Z,990.97
2023-05-16T00:16:48.345Z,990.94
2023-05-16T00:17:48.399Z,990.89
2023-05-16T00:18:48.377Z,990.94
2023-05-16T00:19:48.374Z,991.00
2023-05-16T00:20:48.385Z,990.89
2023-05-16T00:21:48.388Z,991.00
2023-05-16T00:22:48.414Z,990.95
2023-05-16T00:23:48.398Z,991.05
2023-05-16T00:24:48.428Z,990.95
2023-05-16T00:25:48.414Z,991.06
2023-05-16T00:26:48.439Z,991.05
2023-05-16T00:27:48.449Z,991.01
2023-05-16T00:28:48.503Z,990.99
2023-05-16T00:29:48.477Z,991.01
2023-05-16T00:30:48.463Z,991.01
2023-05-16T00:31:48.533Z,990.99
2023-05-16T00:32:48.544Z,990.98
2023-05-16T00:33:48.541Z,991.00
2023-05-16T00:34:48.533Z,991.01
2023-05-16T00:35:48.541Z,991.02
2023-05-16T00:36:48.555Z,991.04
2023-05-16T00:37:48.562Z,991.01
2023-05-16T00:38:48.641Z,990.99
2023-05-16T00:39:48.592Z,990.97
2023-05-16T00:40:48.590Z,990.91
2023-05-16T00:41:48.648Z,990.87
2023-05-16T00:42:48.617Z,990.92
2023-05-16T00:43:48.660Z,990.93
2023-05-16T00:44:48.648Z,990.89
2023-05-16T00:45:48.677Z,990.92
2023-05-16T00:46:48.687Z,990.85
2023-05-16T00:47:48.748Z,990.90
2023-05-16T00:48:48.714Z,990.91
2023-05-16T00:49:48.712Z,990.92
2023-05-16T00:50:48.727Z,990.92
2023-05-16T00:51:48.716Z,990.96
2023-05-16T00:52:48.748Z,990.93
2023-05-16T00:53:48.761Z,990.89
2023-05-16T00:54:48.781Z,990.92
2023-05-16T00:55:48.785Z,990.95
2023-05-16T00:56:48.812Z,990.92
2023-05-16T00:57:48.819Z,990.87
2023-05-16T00:58:48.841Z,990.89
2023-05-16T00:59:48.837Z,990.93
2023-05-16T01:00:48.988Z,990.91
2023-05-16T01:01:48.889Z,990.88
2023-05-16T01:02:48.986Z,990.88
2023-05-16T01:03:49.097Z,990.95
2023-05-16T01:04:48.900Z,990.94
2023-05-16T01:05:48.906Z,990.97
2023-05-16T01:06:49.050Z,991.01
2023-05-16T01:07:48.913Z,991.01
2023-05-16T01:08:48.941Z,990.97
2023-05-16T01:09:48.961Z,990.95
2023-05-16T01:10:48.965Z,990.97
2023-05-16T01:11:49.000Z,990.96
2023-05-16T01:12:48.983Z,990.90
2023-05-16T01:13:49.006Z,990.96
2023-05-16T01:14:49.006Z,990.96
2023-05-16T01:15:49.065Z,990.91
2023-05-16T01:16:49.040Z,991.01
2023-05-16T01:17:49.112Z,991.02
2023-05-16T01:18:49.140Z,990.92
2023-05-16T01:19:49.559Z,990.95
2023-05-16T01:20:49.415Z,991.04
2023-05-16T01:21:49.329Z,990.86
2023-05-16T01:22:49.234Z,991.03
2023-05-16T01:23:49.156Z,990.92
2023-05-16T01:24:50.208Z,990.96
2023-05-16T01:25:49.229Z,990.91
2023-05-16T01:26:49.170Z,990.88
2023-05-16T01:27:49.255Z,990.89
2023-05-16T01:28:49.240Z,990.90
2023-05-16T01:29:49.274Z,990.95
2023-05-16T01:30:49.221Z,990.89
2023-05-16T01:31:49.301Z,990.90
2023-05-16T01:32:49.314Z,990.90
2023-05-16T01:33:49.378Z,990.93
2023-05-16T01:34:49.393Z,990.96
2023-05-16T01:35:49.522Z,990.97
2023-05-16T01:36:49.310Z,990.94
2023-05-16T01:37:49.385Z,990.98
2023-05-16T01:38:49.314Z,990.96
2023-05-16T01:39:49.326Z,990.97
2023-05-16T01:40:49.359Z,990.97
2023-05-16T01:41:49.380Z,991.05
2023-05-16T01:42:49.379Z,990.99
2023-05-16T01:43:49.489Z,991.03
2023-05-16T01:44:49.414Z,990.97
2023-05-16T01:45:49.428Z,990.95
2023-05-16T01:46:49.557Z,990.99
2023-05-16T01:47:49.489Z,991.04
2023-05-16T01:48:49.473Z,990.99
2023-05-16T01:49:49.456Z,990.98
2023-05-16T01:50:49.472Z,990.99
2023-05-16T01:51:49.501Z,990.97
2023-05-16T01:52:49.507Z,990.97
2023-05-16T01:53:49.507Z,990.97
2023-05-16T01:54:49.510Z,990.97
2023-05-16T01:55:49.602Z,990.99
2023-05-16T01:56:49.587Z,991.12
2023-05-16T01:57:49.534Z,990.97
2023-05-16T01:58:49.555Z,990.94
2023-05-16T01:59:49.582Z,991.03
2023-05-16T02:00:49.611Z,990.97
2023-05-16T02:01:49.672Z,991.02
2023-05-16T02:02:49.733Z,990.98
2023-05-16T02:03:49.680Z,991.00
2023-05-16T02:04:49.652Z,991.08
2023-05-16T02:05:49.665Z,991.06
2023-05-16T02:06:49.737Z,991.07
2023-05-16T02:07:50.148Z,991.09
2023-05-16T02:08:49.684Z,991.02
2023-05-16T02:09:49.716Z,991.07
2023-05-16T02:10:49.704Z,991.04
2023-05-16T02:11:49.712Z,991.01
2023-05-16T02:12:49.756Z,991.02
2023-05-16T02:13:49.772Z,991.03
2023-05-16T02:14:49.770Z,991.01
2023-05-16T02:15:49.777Z,991.05
2023-05-16T02:16:49.894Z,991.01
2023-05-16T02:17:49.812Z,991.10
2023-05-16T02:19:09.504Z,991.13
2023-05-16T02:20:09.187Z,991.03
2023-05-16T02:21:09.216Z,991.05
2023-05-16T02:22:09.161Z,991.08
2023-05-16T02:23:11.170Z,991.07
2023-05-16T02:24:09.177Z,991.04
2023-05-16T02:25:09.150Z,991.09
2023-05-16T02:26:09.180Z,991.05
2023-05-16T02:27:09.166Z,991.11
2023-05-16T02:28:09.169Z,991.06
2023-05-16T02:29:09.188Z,991.11
2023-05-16T02:30:09.190Z,991.07
2023-05-16T02:31:09.217Z,991.15
2023-05-16T02:32:09.168Z,991.05
2023-05-16T02:33:09.228Z,991.08
2023-05-16T02:34:09.207Z,991.12
2023-05-16T02:35:09.203Z,991.14
2023-05-16T02:36:09.174Z,991.14
2023-05-16T02:37:10.746Z,991.18
2023-05-16T02:38:09.169Z,991.10
2023-05-16T02:39:09.189Z,991.14
2023-05-16T02:40:09.227Z,991.18
2023-05-16T02:41:09.184Z,991.16
2023-05-16T02:42:09.184Z,991.15
2023-05-16T02:43:09.189Z,991.18
2023-05-16T02:44:09.179Z,991.19
2023-05-16T02:45:09.226Z,991.20
2023-05-16T02:46:09.243Z,991.19
2023-05-16T02:47:09.202Z,991.19
2023-05-16T02:48:09.257Z,991.19
2023-05-16T02:49:09.187Z,991.20
2023-05-16T02:50:09.214Z,991.25
2023-05-16T02:51:09.204Z,991.26
2023-05-16T02:52:09.204Z,991.23
2023-05-16T02:53:09.191Z,991.23
2023-05-16T02:54:09.209Z,991.20
2023-05-16T02:55:21.796Z,991.15
2023-05-16T02:56:09.347Z,991.19
2023-05-16T02:57:09.336Z,991.22
2023-05-16T02:58:09.370Z,991.20
2023-05-16T02:59:09.376Z,991.24
2023-05-16T03:00:09.417Z,991.23
2023-05-16T03:01:09.532Z,991.23
2023-05-16T03:02:09.489Z,991.27
2023-05-16T03:03:09.503Z,991.24
2023-05-16T03:04:09.489Z,991.28
2023-05-16T03:05:09.490Z,991.24
2023-05-16T03:06:09.464Z,991.27
2023-05-16T03:07:09.470Z,991.27
2023-05-16T03:08:09.464Z,991.24
2023-05-16T03:09:09.495Z,991.21
2023-05-16T03:10:09.521Z,991.24
2023-05-16T03:11:09.538Z,991.22
2023-05-16T03:12:09.539Z,991.18
2023-05-16T03:13:09.532Z,991.19
2023-05-16T03:14:09.566Z,991.23
2023-05-16T03:15:09.655Z,991.21
2023-05-16T03:16:09.647Z,991.23
2023-05-16T03:17:09.612Z,991.25
2023-05-16T03:18:09.690Z,991.31
2023-05-16T03:19:09.654Z,991.32
2023-05-16T03:20:09.690Z,991.27
2023-05-16T03:21:09.640Z,991.16
2023-05-16T03:22:09.654Z,991.32
2023-05-16T03:23:09.680Z,991.28
2023-05-16T03:24:09.713Z,991.29
2023-05-16T03:25:09.707Z,991.29
2023-05-16T03:26:09.699Z,991.29
2023-05-16T03:27:09.716Z,991.22
2023-05-16T03:28:09.727Z,991.34
2023-05-16T03:29:09.748Z,991.27
2023-05-16T03:30:09.788Z,991.34
2023-05-16T03:31:09.804Z,991.29
2023-05-16T03:32:09.859Z,991.32
2023-05-16T03:33:09.950Z,991.27
2023-05-16T03:34:09.786Z,991.30
2023-05-16T03:35:09.846Z,991.30
2023-05-16T03:36:09.812Z,991.31
2023-05-16T03:37:09.849Z,991.22
2023-05-16T03:38:09.863Z,991.32
2023-05-16T03:39:09.879Z,991.25
2023-05-16T03:40:09.892Z,991.34
2023-05-16T03:41:09.882Z,991.32
2023-05-16T03:42:09.907Z,991.27
2023-05-16T03:43:09.913Z,991.32
2023-05-16T03:44:09.922Z,991.32
2023-05-16T03:45:09.950Z,991.40
2023-05-16T03:46:10.002Z,991.33
2023-05-16T03:47:09.971Z,991.38
2023-05-16T03:48:09.983Z,991.36
2023-05-16T03:49:09.970Z,991.41
2023-05-16T03:50:10.022Z,991.42
2023-05-16T03:51:10.013Z,991.42
2023-05-16T03:52:10.031Z,991.37
2023-05-16T03:53:10.055Z,991.40
2023-05-16T03:54:10.040Z,991.39
2023-05-16T03:55:10.106Z,991.38
2023-05-16T03:56:10.055Z,991.34
2023-05-16T03:57:10.074Z,991.42
2023-05-16T03:58:10.084Z,991.33
2023-05-16T03:59:10.104Z,991.42
2023-05-16T04:00:10.117Z,991.43
2023-05-16T04:01:10.122Z,991.44
2023-05-16T04:02:10.215Z,991.42
2023-05-16T04:03:10.247Z,991.42
2023-05-16T04:04:10.165Z,991.47
2023-05-16T04:05:10.363Z,991.47
2023-05-16T04:06:10.308Z,991.45
2023-05-16T04:07:10.223Z,991.52
2023-05-16T04:08:10.207Z,991.43
2023-05-16T04:09:10.212Z,991.50
2023-05-16T04:10:10.265Z,991.43
2023-05-16T04:11:10.284Z,991.49
2023-05-16T04:12:10.256Z,991.50
2023-05-16T04:13:10.280Z,991.48
2023-05-16T04:14:10.411Z,991.46
2023-05-16T04:15:10.292Z,991.58
2023-05-16T04:16:10.322Z,991.52
2023-05-16T04:17:10.384Z,991.50
2023-05-16T04:18:10.360Z,991.57
2023-05-16T04:19:10.441Z,991.64
2023-05-16T04:20:10.365Z,991.60
2023-05-16T04:21:10.397Z,991.60
2023-05-16T04:22:10.401Z,991.58
2023-05-16T04:23:10.401Z,991.57
2023-05-16T04:24:10.414Z,991.58
2023-05-16T04:25:10.442Z,991.59
2023-05-16T04:26:10.442Z,991.54
2023-05-16T04:27:10.448Z,991.50
2023-05-16T04:28:10.466Z,991.56
2023-05-16T04:29:10.481Z,991.63
2023-05-16T04:30:10.470Z,991.65
2023-05-16T04:31:10.515Z,991.68
2023-05-16T04:32:10.511Z,991.69
2023-05-16T04:33:10.545Z,991.70
2023-05-16T04:34:10.551Z,991.66
2023-05-16T04:35:10.549Z,991.65
2023-05-16T04:36:10.548Z,991.70
2023-05-16T04:37:10.558Z,991.70
2023-05-16T04:38:10.580Z,991.76
2023-05-16T04:39:10.598Z,991.76
2023-05-16T04:40:10.632Z,991.79
2023-05-16T04:41:10.616Z,991.81
2023-05-16T04:42:10.627Z,991.83
2023-05-16T04:43:10.690Z,991.77
2023-05-16T04:44:10.644Z,991.83
2023-05-16T04:45:10.671Z,991.86
2023-05-16T04:46:10.748Z,991.84
2023-05-16T04:47:10.698Z,991.86
2023-05-16T04:48:10.763Z,991.94
2023-05-16T04:49:10.723Z,991.91
2023-05-16T04:50:10.731Z,992.00
2023-05-16T04:51:10.747Z,991.93
2023-05-16T04:52:10.751Z,991.98
2023-05-16T04:53:10.789Z,992.05
2023-05-16T04:54:10.912Z,992.06
2023-05-16T04:55:10.791Z,992.10
2023-05-16T04:56:10.806Z,992.14
2023-05-16T04:57:10.801Z,992.10
2023-05-16T04:58:10.847Z,992.10
2023-05-16T04:59:10.853Z,992.14
2023-05-16T05:00:10.895Z,992.10
2023-05-16T05:01:10.897Z,992.17
2023-05-16T05:02:10.922Z,992.22
2023-05-16T05:03:11.087Z,992.23
2023-05-16T05:04:10.924Z,992.21
2023-05-16T05:05:10.931Z,992.23
2023-05-16T05:06:11.020Z,992.22
2023-05-16T05:07:10.937Z,992.25
2023-05-16T05:08:10.978Z,992.30
2023-05-16T05:09:10.988Z,992.29
2023-05-16T05:10:11.016Z,992.31
2023-05-16T05:11:10.997Z,992.31
2023-05-16T05:12:10.984Z,992.30
2023-05-16T05:13:10.998Z,992.34
2023-05-16T05:14:11.057Z,992.28
2023-05-16T05:15:11.030Z,992.35
2023-05-16T05:16:11.040Z,992.37
2023-05-16T05:17:11.084Z,992.39
2023-05-16T05:18:11.249Z,992.38
2023-05-16T05:19:11.181Z,992.38
2023-05-16T05:20:11.096Z,992.44
2023-05-16T05:21:11.098Z,992.44
2023-05-16T05:22:11.132Z,992.40
2023-05-16T05:23:11.111Z,992.47
2023-05-16T05:24:11.127Z,992.44
2023-05-16T05:25:11.123Z,992.39
2023-05-16T05:26:11.114Z,992.41
2023-05-16T05:27:11.162Z,992.43
2023-05-16T05:28:11.188Z,992.44
2023-05-16T05:29:11.181Z,992.50
2023-05-16T05:30:11.299Z,992.54
2023-05-16T05:31:11.215Z,992.59
2023-05-16T05:32:11.286Z,992.57
2023-05-16T05:33:11.305Z,992.57
2023-05-16T05:34:11.258Z,992.58
2023-05-16T05:35:11.277Z,992.65
2023-05-16T05:37:25.238Z,992.63
2023-05-16T05:38:25.228Z,992.56
2023-05-16T05:39:25.282Z,992.63
2023-05-16T05:40:25.266Z,992.60
2023-05-16T05:41:25.237Z,992.62
2023-05-16T05:42:25.233Z,992.64
2023-05-16T05:43:25.245Z,992.66
2023-05-16T05:44:25.268Z,992.63
2023-05-16T05:45:25.421Z,992.64
2023-05-16T05:46:25.389Z,992.66
2023-05-16T05:47:25.286Z,992.67
2023-05-16T05:48:25.284Z,992.70
2023-05-16T05:49:25.242Z,992.72
2023-05-16T05:50:25.279Z,992.66
2023-05-16T05:51:25.255Z,992.69
2023-05-16T05:52:25.284Z,992.69
2023-05-16T05:53:25.376Z,992.73
2023-05-16T05:54:25.322Z,992.70
2023-05-16T05:55:25.706Z,992.68
2023-05-16T05:56:25.348Z,992.78
2023-05-16T05:57:25.330Z,992.78
2023-05-16T05:58:25.280Z,992.80
2023-05-16T05:59:25.336Z,992.81
2023-05-16T06:00:25.277Z,992.84
2023-05-16T06:01:25.281Z,992.80
2023-05-16T06:02:25.390Z,992.82
2023-05-16T06:03:25.360Z,992.93
2023-05-16T06:04:25.309Z,992.84
2023-05-16T06:05:25.496Z,992.92
2023-05-16T06:06:25.309Z,992.94
2023-05-16T06:07:25.264Z,992.90
2023-05-16T06:08:25.301Z,992.94
2023-05-16T06:09:25.323Z,993.01
2023-05-16T06:10:25.333Z,993.03
2023-05-16T06:11:25.339Z,993.02
2023-05-16T06:12:25.278Z,993.07
2023-05-16T06:13:25.325Z,993.09
2023-05-16T06:14:25.476Z,993.07
2023-05-16T06:15:25.808Z,993.12
2023-05-16T06:16:25.523Z,993.18
2023-05-16T06:17:25.494Z,993.13
2023-05-16T06:18:25.494Z,993.12
2023-05-16T06:19:25.609Z,993.17
2023-05-16T06:20:25.531Z,993.20
2023-05-16T06:21:25.557Z,993.22
2023-05-16T06:22:25.522Z,993.30
2023-05-16T06:23:25.552Z,993.23
2023-05-16T06:24:25.592Z,993.21
2023-05-16T06:25:25.820Z,993.24
2023-05-16T06:26:25.603Z,993.26
2023-05-16T06:27:25.606Z,993.29
2023-05-16T06:28:25.612Z,993.33
2023-05-16T06:29:25.628Z,993.33
2023-05-16T06:30:25.658Z,993.33
2023-05-16T06:31:25.749Z,993.28
2023-05-16T06:32:25.675Z,993.42
2023-05-16T06:33:25.734Z,993.38
2023-05-16T06:34:25.800Z,993.43
2023-05-16T06:35:25.884Z,993.36
2023-05-16T06:36:25.717Z,993.39
2023-05-16T06:37:25.723Z,993.43
2023-05-16T06:38:25.731Z,993.39
2023-05-16T06:39:25.797Z,993.42
2023-05-16T06:40:25.770Z,993.48
2023-05-16T06:41:25.779Z,993.44
2023-05-16T06:42:25.833Z,993.51
2023-05-16T06:43:25.830Z,993.50
2023-05-16T06:44:25.797Z,993.52
2023-05-16T06:45:26.069Z,993.49
2023-05-16T06:46:25.885Z,993.49
2023-05-16T06:47:25.941Z,993.50
2023-05-16T06:48:25.977Z,993.44
2023-05-16T06:49:25.907Z,993.46
2023-05-16T06:50:25.883Z,993.47
2023-05-16T06:51:28.677Z,993.54
2023-05-16T06:52:26.018Z,993.52
2023-05-16T06:53:26.009Z,993.51
2023-05-16T06:54:26.032Z,993.55
2023-05-16T06:55:26.216Z,993.53
2023-05-16T06:56:26.056Z,993.51
2023-05-16T06:57:26.059Z,993.60
2023-05-16T06:58:26.062Z,993.55
2023-05-16T06:59:28.050Z,993.55
2023-05-16T07:00:26.125Z,993.60
2023-05-16T07:01:26.159Z,993.53
2023-05-16T07:02:26.268Z,993.62
2023-05-16T07:03:26.312Z,993.65
2023-05-16T07:04:26.144Z,993.66
2023-05-16T07:05:26.380Z,993.60
2023-05-16T07:06:26.185Z,993.69
2023-05-16T07:07:26.178Z,993.72
2023-05-16T07:08:26.195Z,993.74
2023-05-16T07:09:26.213Z,993.75
2023-05-16T07:10:26.213Z,993.73
2023-05-16T07:11:26.204Z,993.76
2023-05-16T07:12:26.227Z,993.84
2023-05-16T07:13:26.273Z,993.81
2023-05-16T07:14:26.273Z,993.77
2023-05-16T07:15:26.375Z,993.85
2023-05-16T07:16:26.355Z,993.80
2023-05-16T07:17:26.361Z,993.87
2023-05-16T07:18:26.368Z,993.86
2023-05-16T07:19:26.444Z,993.88
2023-05-16T07:20:26.491Z,993.89
2023-05-16T07:21:26.345Z,993.77
2023-05-16T07:22:26.352Z,993.83
2023-05-16T07:23:26.372Z,993.88
2023-05-16T07:24:26.372Z,993.88
2023-05-16T07:25:26.619Z,993.89
2023-05-16T07:26:26.398Z,993.95
2023-05-16T07:27:26.468Z,993.91
2023-05-16T07:28:26.442Z,993.93
2023-05-16T07:29:26.429Z,993.90
2023-05-16T07:30:26.452Z,993.90
2023-05-16T07:31:26.510Z,993.95
2023-05-16T07:32:26.499Z,993.95
2023-05-16T07:33:26.498Z,993.98
2023-05-16T07:34:26.527Z,994.02
2023-05-16T07:35:26.779Z,994.02
2023-05-16T07:36:26.496Z,993.96
2023-05-16T07:37:26.538Z,994.02
2023-05-16T07:38:26.529Z,994.09
2023-05-16T07:39:26.569Z,994.01
2023-05-16T07:40:26.585Z,994.04
2023-05-16T07:41:26.590Z,994.02
2023-05-16T07:42:26.609Z,994.11
2023-05-16T07:43:27.760Z,994.02
2023-05-16T07:44:26.630Z,994.05
2023-05-16T07:45:26.932Z,994.16
2023-05-16T07:46:26.675Z,994.16
2023-05-16T07:47:26.685Z,994.15
2023-05-16T07:48:26.645Z,994.20
2023-05-16T07:49:26.693Z,994.16
2023-05-16T07:50:26.707Z,994.14
2023-05-16T07:51:26.917Z,994.14
2023-05-16T07:52:26.760Z,994.12
2023-05-16T07:53:26.731Z,994.14
2023-05-16T07:54:26.766Z,994.18
2023-05-16T07:55:26.989Z,994.20
2023-05-16T07:56:26.747Z,994.21
2023-05-16T07:57:28.018Z,994.16
2023-05-16T07:58:26.839Z,994.22
2023-05-16T07:59:26.874Z,994.19
2023-05-16T08:00:26.809Z,994.22
2023-05-16T08:01:26.891Z,994.24
2023-05-16T08:02:26.915Z,994.25
2023-05-16T08:03:26.997Z,994.28
2023-05-16T08:04:26.865Z,994.28
2023-05-16T08:05:27.169Z,994.24
2023-05-16T08:06:26.902Z,994.26
2023-05-16T08:07:27.025Z,994.32
2023-05-16T08:08:26.938Z,994.28
2023-05-16T08:09:26.932Z,994.31
2023-05-16T08:10:26.935Z,994.30
2023-05-16T08:11:26.953Z,994.26
2023-05-16T08:12:26.977Z,994.16
2023-05-16T08:13:28.308Z,994.25
2023-05-16T08:14:26.993Z,994.28
2023-05-16T08:15:27.245Z,994.30
2023-05-16T08:16:27.099Z,994.25
2023-05-16T08:17:27.008Z,994.32
2023-05-16T08:18:27.099Z,994.34
2023-05-16T08:19:27.238Z,994.36
2023-05-16T08:20:27.072Z,994.28
2023-05-16T08:21:27.209Z,994.33
2023-05-16T08:22:27.080Z,994.36
2023-05-16T08:23:27.347Z,994.43
2023-05-16T08:24:27.133Z,994.39
2023-05-16T08:25:27.378Z,994.35
2023-05-16T08:26:27.146Z,994.34
2023-05-16T08:27:27.143Z,994.45
2023-05-16T08:28:27.170Z,994.49
2023-05-16T08:29:27.152Z,994.46
2023-05-16T08:30:27.227Z,994.44
2023-05-16T08:31:27.260Z,994.48
2023-05-16T08:32:27.233Z,994.45
2023-05-16T08:33:27.236Z,994.46
2023-05-16T08:34:27.233Z,994.49
2023-05-16T08:35:27.404Z,994.55
2023-05-16T08:36:27.272Z,994.56
2023-05-16T08:37:27.234Z,994.57
2023-05-16T08:38:27.288Z,994.60
2023-05-16T08:39:27.312Z,994.63
2023-05-16T08:40:27.311Z,994.64
2023-05-16T08:41:27.343Z,994.58
2023-05-16T08:42:27.300Z,994.58
2023-05-16T08:43:27.337Z,994.59
2023-05-16T08:44:27.344Z,994.62
2023-05-16T08:45:27.608Z,994.58
2023-05-16T08:46:27.429Z,994.49
2023-05-16T08:47:27.459Z,994.62
2023-05-16T08:48:27.493Z,994.54
2023-05-16T08:49:27.459Z,994.51
2023-05-16T08:50:27.445Z,994.52
2023-05-16T08:51:27.450Z,994.61
2023-05-16T08:52:27.461Z,994.57
2023-05-16T08:53:28.017Z,994.54
2023-05-16T08:54:28.182Z,994.57
2023-05-16T08:55:27.747Z,994.55
2023-05-16T08:56:27.519Z,994.51
2023-05-16T08:57:27.592Z,994.56
2023-05-16T08:58:27.546Z,994.52
2023-05-16T08:59:27.519Z,994.59
2023-05-16T09:00:27.527Z,994.57
2023-05-16T09:01:27.612Z,994.55
2023-05-16T09:02:27.626Z,994.59
2023-05-16T09:03:27.628Z,994.55
2023-05-16T09:04:27.738Z,994.61
2023-05-16T09:05:27.907Z,994.64
2023-05-16T09:06:27.670Z,994.60
2023-05-16T09:07:27.649Z,994.66
2023-05-16T09:08:27.647Z,994.58
2023-05-16T09:09:27.735Z,994.66
2023-05-16T09:10:27.675Z,994.73
2023-05-16T09:11:27.663Z,994.73
2023-05-16T09:12:27.675Z,994.69
2023-05-16T09:13:28.132Z,994.69
2023-05-16T09:14:27.776Z,994.73
2023-05-16T09:15:27.944Z,994.72
2023-05-16T09:16:27.899Z,994.73
2023-05-16T09:17:38.970Z,994.69
2023-05-16T09:18:27.919Z,994.75
2023-05-16T09:19:27.901Z,994.71
2023-05-16T09:20:27.753Z,994.67
2023-05-16T09:21:27.780Z,994.72
2023-05-16T09:22:27.741Z,994.72
2023-05-16T09:23:27.770Z,994.78
2023-05-16T09:24:27.766Z,994.75
2023-05-16T09:25:31.280Z,994.73
2023-05-16T09:26:27.748Z,994.65
2023-05-16T09:27:27.770Z,994.70
2023-05-16T09:28:27.780Z,994.73
2023-05-16T09:29:27.810Z,994.68
2023-05-16T09:30:27.806Z,994.71
2023-05-16T09:31:27.843Z,994.67
2023-05-16T09:32:27.924Z,994.69
2023-05-16T09:33:27.792Z,994.75
2023-05-16T09:34:27.787Z,994.69
2023-05-16T09:35:43.232Z,994.62
2023-05-16T09:36:27.785Z,994.73
2023-05-16T09:37:27.809Z,994.62
2023-05-16T09:38:27.809Z,994.79
2023-05-16T09:39:27.809Z,994.71
2023-05-16T09:40:27.790Z,994.71
2023-05-16T09:41:27.797Z,994.77
2023-05-16T09:42:27.779Z,994.74
2023-05-16T09:43:27.756Z,994.76
2023-05-16T09:44:27.796Z,994.71
2023-05-16T09:45:27.921Z,994.68
2023-05-16T09:46:27.812Z,994.72
2023-05-16T09:47:27.812Z,994.74
2023-05-16T09:48:27.803Z,994.81
2023-05-16T09:49:27.822Z,994.67
2023-05-16T09:50:27.959Z,994.73
2023-05-16T09:51:27.797Z,994.68
2023-05-16T09:52:27.788Z,994.62
2023-05-16T09:53:27.864Z,994.64
2023-05-16T09:54:27.863Z,994.67
2023-05-16T09:55:27.965Z,994.66
2023-05-16T09:56:27.814Z,994.65
2023-05-16T09:57:27.806Z,994.57
2023-05-16T09:58:27.790Z,994.56
2023-05-16T09:59:27.877Z,994.54
2023-05-16T10:00:27.838Z,994.57
2023-05-16T10:01:27.855Z,994.52
2023-05-16T10:02:27.914Z,994.53
2023-05-16T10:03:27.909Z,994.60
2023-05-16T10:04:31.101Z,994.53
2023-05-16T10:05:28.082Z,994.60
2023-05-16T10:06:27.869Z,994.57
2023-05-16T10:07:27.795Z,994.56
2023-05-16T10:08:27.811Z,994.62
2023-05-16T10:09:27.834Z,994.57
2023-05-16T10:10:27.850Z,994.61
2023-05-16T10:11:27.824Z,994.51
2023-05-16T10:12:27.791Z,994.60
2023-05-16T10:13:27.820Z,994.54
2023-05-16T10:14:27.854Z,994.57
2023-05-16T10:15:28.043Z,994.53
2023-05-16T10:16:27.925Z,994.50
2023-05-16T10:17:27.904Z,994.54
2023-05-16T10:18:27.826Z,994.50
2023-05-16T10:19:27.881Z,994.49
2023-05-16T10:20:27.821Z,994.52
2023-05-16T10:21:30.043Z,994.48
2023-05-16T10:22:27.857Z,994.52
2023-05-16T10:23:27.846Z,994.46
2023-05-16T10:24:27.836Z,994.49
2023-05-16T10:25:28.121Z,994.50
2023-05-16T10:26:27.842Z,994.43
2023-05-16T10:27:27.868Z,994.37
2023-05-16T10:28:27.835Z,994.39
2023-05-16T10:29:27.842Z,994.44
2023-05-16T10:30:27.880Z,994.43
2023-05-16T10:31:27.851Z,994.46
2023-05-16T10:32:27.838Z,994.48
2023-05-16T10:33:27.855Z,994.45
2023-05-16T10:34:27.842Z,994.46
2023-05-16T10:35:28.164Z,994.46
2023-05-16T10:36:27.861Z,994.46
2023-05-16T10:37:27.870Z,994.42
2023-05-16T10:38:27.859Z,994.46
2023-05-16T10:39:27.860Z,994.49
2023-05-16T10:40:27.903Z,994.51
2023-05-16T10:41:27.903Z,994.43
2023-05-16T10:42:27.854Z,994.39
2023-05-16T10:43:27.884Z,994.38
2023-05-16T10:44:27.852Z,994.25
2023-05-16T10:45:28.237Z,994.28
2023-05-16T10:46:27.912Z,994.28
2023-05-16T10:47:27.857Z,994.27
2023-05-16T10:48:28.011Z,994.32
2023-05-16T10:49:27.846Z,994.23
2023-05-16T10:50:27.880Z,994.24
2023-05-16T10:51:27.850Z,994.30
2023-05-16T10:52:27.874Z,994.31
2023-05-16T10:53:27.852Z,994.30
2023-05-16T10:54:27.858Z,994.30
2023-05-16T10:55:28.115Z,994.33
2023-05-16T10:56:27.909Z,994.33
2023-05-16T10:57:27.890Z,994.28
2023-05-16T10:58:27.885Z,994.30
2023-05-16T10:59:27.851Z,994.29
2023-05-16T11:00:27.905Z,994.28
2023-05-16T11:01:28.042Z,994.22
2023-05-16T11:02:27.913Z,994.20
2023-05-16T11:03:30.330Z,994.26
2023-05-16T11:04:27.915Z,994.28
2023-05-16T11:05:28.081Z,994.21
2023-05-16T11:06:27.964Z,994.30
2023-05-16T11:07:27.945Z,994.20
2023-05-16T11:08:28.006Z,994.11
2023-05-16T11:09:28.414Z,994.12
2023-05-16T11:10:28.026Z,994.27
2023-05-16T11:11:28.039Z,994.29
2023-05-16T11:12:28.016Z,994.28
2023-05-16T11:13:28.034Z,994.18
2023-05-16T11:14:28.078Z,994.24
2023-05-16T11:15:28.383Z,994.28
2023-05-16T11:16:28.139Z,994.26
2023-05-16T11:17:28.129Z,994.32
2023-05-16T11:18:28.127Z,994.32
2023-05-16T11:19:28.124Z,994.28
2023-05-16T11:20:28.184Z,994.32
2023-05-16T11:21:28.124Z,994.31
2023-05-16T11:22:28.186Z,994.43
2023-05-16T11:23:28.183Z,994.39
2023-05-16T11:24:28.193Z,994.34
2023-05-16T11:25:28.347Z,994.28
2023-05-16T11:26:28.192Z,994.32
2023-05-16T11:27:28.210Z,994.17
2023-05-16T11:28:28.257Z,994.31
2023-05-16T11:29:28.253Z,994.26
2023-05-16T11:30:28.265Z,994.32
2023-05-16T11:31:28.343Z,994.28
2023-05-16T11:32:28.282Z,994.25
2023-05-16T11:33:28.292Z,994.32
2023-05-16T11:34:28.324Z,994.30
2023-05-16T11:35:28.430Z,994.22
2023-05-16T11:36:28.334Z,994.23
2023-05-16T11:37:28.357Z,994.28
2023-05-16T11:38:28.370Z,994.27
2023-05-16T11:39:28.429Z,994.28
2023-05-16T11:41:28.880Z,994.32
2023-05-16T11:42:28.663Z,994.39
2023-05-16T11:43:30.835Z,994.36
2023-05-16T11:44:30.715Z,994.34
2023-05-16T11:45:29.030Z,994.39
2023-05-16T11:46:28.508Z,994.43
2023-05-16T11:47:28.476Z,994.30
2023-05-16T11:48:35.556Z,994.32
2023-05-16T11:49:28.418Z,994.30
2023-05-16T11:50:28.441Z,994.37
2023-05-16T11:51:28.434Z,994.32
2023-05-16T11:52:28.411Z,994.39
2023-05-16T11:53:28.428Z,994.32
2023-05-16T11:54:28.422Z,994.25
2023-05-16T11:55:41.083Z,994.22
2023-05-16T11:56:28.447Z,994.30
2023-05-16T11:57:28.397Z,994.31
2023-05-16T11:58:28.390Z,994.32
2023-05-16T11:59:28.447Z,994.28
2023-05-16T12:00:28.442Z,994.25
2023-05-16T12:01:28.856Z,994.30
2023-05-16T12:02:28.501Z,994.26
2023-05-16T12:03:28.538Z,994.32
2023-05-16T12:04:28.679Z,994.26
2023-05-16T12:05:28.551Z,994.25
2023-05-16T12:06:28.466Z,994.26
2023-05-16T12:07:28.443Z,994.43
2023-05-16T12:08:28.447Z,994.33
2023-05-16T12:09:28.434Z,994.37
2023-05-16T12:10:28.674Z,994.45
2023-05-16T12:11:28.467Z,994.36
2023-05-16T12:12:28.414Z,994.30
2023-05-16T12:13:28.424Z,994.37
2023-05-16T12:14:28.420Z,994.24
2023-05-16T12:15:28.688Z,994.36
2023-05-16T12:16:28.513Z,994.38
2023-05-16T12:17:28.472Z,994.37
2023-05-16T12:18:28.478Z,994.43
2023-05-16T12:19:28.519Z,994.41
2023-05-16T12:20:28.511Z,994.44
2023-05-16T12:21:28.453Z,994.41
2023-05-16T12:22:28.446Z,994.46
2023-05-16T12:23:28.458Z,994.39
2023-05-16T12:24:30.108Z,994.40
2023-05-16T12:25:28.772Z,994.38
2023-05-16T12:26:28.452Z,994.42
2023-05-16T12:27:28.455Z,994.42
2023-05-16T12:28:28.499Z,994.39
2023-05-16T12:29:28.466Z,994.34
2023-05-16T12:30:28.596Z,994.40
2023-05-16T12:31:32.114Z,994.33